• Join FlightAware (Why Join?)
  • Login
  • US Flag 
09:37AM EDT


 

Airport Tracker/Info


-or-


 

Live Flight TrackerFlight Track Log ✈ UCA3596 ✈ 11-Jan-2014 ✈ KBGM - KIAD

Flight Track Log - Related Links

Times and Time Zones

All times are in EST time to prevent confusion due to time zone crossing. See the UCA3596 flight status page for this flight to view local times or setup timezone preferences in your user account.

Time Position Orientation Groundspeed Altitude Reporting Facility
EST Latitude Longitude Course Direction KTS MPH feet Rate Location/Type
03:23PM 42.1775 -75.9814 212° Southwest 257 296 3,100  Level New York Center
03:24PM 42.1406 -76.0147 214° Southwest 157 181 4,200 1,020 Climbing New York Center
03:25PM 42.1058 -76.0511 218° Southwest 162 186 5,200 1,020 Climbing New York Center
03:26PM 42.0644 -76.0897 215° Southwest 167 192 6,300 1,020 Climbing New York Center
03:27PM 42.0233 -76.1283 215° Southwest 179 206 7,300 960 Climbing New York Center
03:28PM 41.9797 -76.1694 215° Southwest 184 212 8,300 960 Climbing New York Center
03:29PM 41.9252 -76.1145 212° Southwest  Level Estimated
03:29PM 41.9428 -76.2053 216° Southwest 184 212 9,300  Level New York Center
03:30PM 41.8989 -76.2492 217° Southwest 184 212 10,500 1,260 Climbing New York Center
03:31PM 41.8578 -76.2847 213° Southwest 184 212 11,900 1,200 Climbing New York Center
03:32PM 41.8208 -76.3206 216° Southwest 179 206 12,900 900 Climbing New York Center
03:33PM 41.7858 -76.3539 215° Southwest 179 206 13,700 540 Climbing New York Center
03:34PM 41.7403 -76.3944 214° Southwest 185 213 14,000 120 Climbing New York Center
03:35PM 41.6856 -76.4483 216° Southwest 212 244 14,000  Level New York Center
03:36PM 41.6333 -76.4939 213° Southwest 224 258 14,000  Level New York Center
03:37PM 41.5831 -76.5422 216° Southwest 229 264 14,000  Level New York Center
03:38PM 41.5394 -76.5856 217° Southwest 229 264 14,000  Level New York Center
03:39PM 41.4828 -76.6361 214° Southwest 229 264 14,000  Level New York Center
03:40PM 41.4325 -76.6842 216° Southwest 229 264 14,000  Level New York Center
03:41PM 41.3908 -76.7275 218° Southwest 229 264 14,000  Level New York Center
03:42PM 41.3425 -76.7731 215° Southwest 229 264 14,000  Level New York Center
03:43PM 41.2836 -76.7872 190° South 219 252 14,000  Level New York Center
03:44PM 41.2225 -76.7983 188° South 219 252 14,000  Level New York Center
03:45PM 41.1614 -76.8122 190° South 224 258 14,000  Level New York Center
03:46PM 41.1025 -76.8261 190° South 224 258 14,000  Level New York Center
03:47PM 41.0414 -76.8372 188° South 224 258 14,000  Level New York Center
03:48PM 40.9783 -76.8481 187° South 224 258 14,000  Level New York Center
03:49PM 40.9194 -76.8594 188° South 224 258 14,000  Level New York Center
03:50PM 40.8519 -76.8725 188° South 218 251 14,000  Level New York Center
03:51PM 40.7994 -76.8842 190° South 223 257 14,000  Level New York Center
03:52PM 40.7317 -76.9028 192° South 223 257 14,000 -60 Level New York Center
03:53PM 40.6767 -76.9197 193° South 224 258 13,900  Descending New York Center
03:54PM 40.6089 -76.9411 193° South 224 258 14,000  Climbing New York Center
03:55PM 40.5536 -76.9581 193° South 224 258 14,000  Level New York Center
03:56PM 40.4881 -76.9794 194° South 224 258 14,000  Level New York Center
03:57PM 40.4331 -76.9936 191° South 224 258 14,000  Level New York Center
03:58PM 40.3672 -77.0150 194° South 224 258 14,000  Level New York Center
03:59PM 40.3056 -77.0367 195° South 224 258 14,000  Level New York Center
04:00PM 40.2444 -77.0528 191° South 224 258 14,000  Level New York Center
04:02PM 40.1333 -77.0833 191° South 228 262 14,000 -180 Level Potomac TRACON
04:03PM 40.0667 -77.1000 191° South 224 258 13,600 -660 Descending Potomac TRACON
04:05PM 39.9333 -77.1333 191° South 247 284 12,100 -780 Descending Potomac TRACON
04:06PM 39.8667 -77.1167 169° South 248 285 11,400 -600 Descending Potomac TRACON
04:07PM 39.8000 -77.1167 180° South 249 287 11,000 -240 Descending Potomac TRACON
04:08PM 39.7500 -77.1000 166° South 237 273 11,000 -300 Level Potomac TRACON
04:09PM 39.7000 -77.1667 226° Southwest 226 260 10,500 -540 Descending Potomac TRACON
04:10PM 39.6667 -77.2500 243° Southwest 223 257 10,000 -540 Descending Potomac TRACON
04:11PM 39.6333 -77.3000 229° Southwest 213 245 9,500 -600 Descending Potomac TRACON
04:13PM 39.5333 -77.3833 213° Southwest 207 238 8,200 -720 Descending Potomac TRACON
04:14PM 39.4833 -77.4167 207° Southwest 208 239 7,400 -600 Descending Potomac TRACON
04:15PM 39.4333 -77.4333 194° South 176 203 7,000 -900 Descending Potomac TRACON
04:16PM 39.3833 -77.4500 194° South 211 243 5,700 -1,020 Descending Potomac TRACON
04:17PM 39.3333 -77.4500 180° South 202 232 5,000 -420 Descending Potomac TRACON
04:18PM 39.2833 -77.4500 180° South 197 227 5,000  Level Potomac TRACON
04:19PM 39.2333 -77.4500 180° South 195 224 5,000 -420 Level Potomac TRACON
04:20PM 39.1667 -77.4500 180° South 199 229 4,200 -960 Descending Potomac TRACON
04:21PM 39.1167 -77.4500 180° South 182 209 3,000 -1,020 Descending Potomac TRACON
04:22PM 39.0667 -77.4500 180° South 160 184 2,200 -840 Descending Potomac TRACON
04:23PM 39.0167 -77.4667 195° South 147 169 1,400 -720 Descending Potomac TRACON
04:24PM 39.0000 -77.4667 180° South 98 113 800 -600 Descending Potomac TRACON
04:26PM 38.9474 -77.4599 169° South  Level Estimated
04:33PM 38.9474 -77.4599 349° North  Level Estimated
04:34PM 38.9474 -77.4599 349° North  Level Estimated